PWSweather.com
Personal Weather Stations
Station Observations

AwhituWaiuku, CA 268400

Lat: -37.058, Lon: -174.6346

Elevation: 250

Station Type: Personal

http://www.weather-display.com/windy/gb/grahamsbeach.htm

Latest ConditionsUpdated 11:30:05 AM GMT-12:48 Sunday, Nov 18, 2018
Currently Today's Max Today's Min Today's Average
Temperature 56.8°F13.8°C 63.2°F17.3°C 55.5°F13.1°C 58.2°F14.6°C
Dew Point 50.4°F10.2°C 55.4°F13.0°C 50.3°F10.2°C 52.9°F11.6°C
Winds 19.6 mph SSW31.5 kmh SSW 19.6 mph -31.5 kmh - - 8.7 mph 14.0 kmh
Wind Gusts 27.6 mph44.4 kmh 27.6 mph44.4 kmh - -
Humidity 79% 90% 74% 83%
Pressure 29.67 in1004.7 mb 29.75 in1007.5 mb 29.66 in1004.4 mb -
Precipitation - 0.01 in0.3 mm - -
Hour Temp Dew Point Humidity Winds Wind Gusts Pressure Precip Precip Rate Daily Precip Total
11:30 AM 56.8°F13.8°C 50.4°F10.2°C 79% 19.6 mph SSW31.5 kmh SSW 27.6 mph44.4 kmh 29.67 in1004.7 mb - 0.00 in0.0 mm 0.01 in0.3 mm
11:00 AM 59.6°F15.3°C 52.7°F11.5°C 78% 13.8 mph S22.2 kmh S 20.7 mph33.3 kmh 29.67 in1004.7 mb - 0.00 in0.0 mm 0.01 in0.3 mm
10:30 AM 58.9°F14.9°C 52.7°F11.5°C 80% 17.3 mph SSW27.8 kmh SSW 26.5 mph42.6 kmh 29.67 in1004.7 mb - 0.00 in0.0 mm 0.01 in0.3 mm
10:00 AM 63.2°F17.3°C 54.7°F12.6°C 74% 10.4 mph WSW16.7 kmh WSW 17.3 mph27.8 kmh 29.66 in1004.4 mb - 0.00 in0.0 mm 0.01 in0.3 mm
09:30 AM 60.8°F16.0°C 54.6°F12.6°C 80% 5.8 mph SSW9.3 kmh SSW 9.2 mph14.8 kmh 29.67 in1004.7 mb - 0.00 in0.0 mm 0.01 in0.3 mm
09:00 AM 58.0°F14.4°C 51.8°F11.0°C 80% 8.1 mph SW13.0 kmh SW 8.1 mph13.0 kmh 29.68 in1005.1 mb - 0.00 in0.0 mm 0.01 in0.3 mm
08:30 AM 60.7°F15.9°C 52.4°F11.3°C 74% 12.7 mph W20.4 kmh W 13.8 mph22.2 kmh 29.68 in1005.1 mb - 0.00 in0.0 mm 0.01 in0.3 mm
08:00 AM 60.0°F15.6°C 52.5°F11.4°C 76% 10.4 mph WSW16.7 kmh WSW 11.5 mph18.5 kmh 29.68 in1005.1 mb - 0.01 in0.3 mm 0.01 in0.3 mm
07:30 AM 59.8°F15.4°C 51.5°F10.8°C 74% 5.8 mph SW9.3 kmh SW 11.5 mph18.5 kmh 29.68 in1005.1 mb - 0.01 in0.3 mm 0.01 in0.3 mm
07:00 AM 58.6°F14.8°C 51.8°F11.0°C 78% 6.9 mph SW11.1 kmh SW 11.5 mph18.5 kmh 29.68 in1005.1 mb - 0.00 in0.0 mm 0.00 in0.0 mm
06:30 AM 57.5°F14.2°C 50.3°F10.2°C 77% 6.9 mph SW11.1 kmh SW 9.2 mph14.8 kmh 29.69 in1005.4 mb - 0.00 in0.0 mm 0.00 in0.0 mm
06:00 AM 56.4°F13.6°C 50.3°F10.2°C 80% 4.6 mph SW7.4 kmh SW 6.9 mph11.1 kmh 29.68 in1005.1 mb - 0.00 in0.0 mm 0.00 in0.0 mm
05:30 AM 55.7°F13.2°C 52.2°F11.2°C 88% 3.5 mph S5.6 kmh S 5.8 mph9.3 kmh 29.68 in1005.1 mb - 0.00 in0.0 mm 0.00 in0.0 mm
05:00 AM 55.5°F13.1°C 52.3°F11.3°C 89% 3.5 mph S5.6 kmh S 4.6 mph7.4 kmh 29.68 in1005.1 mb - 0.00 in0.0 mm 0.00 in0.0 mm
04:30 AM 55.7°F13.2°C 52.5°F11.4°C 89% 5.8 mph S9.3 kmh S 9.2 mph14.8 kmh 29.69 in1005.4 mb - 0.00 in0.0 mm 0.00 in0.0 mm
04:00 AM 57.0°F13.9°C 52.5°F11.4°C 85% 10.4 mph SSW16.7 kmh SSW 17.3 mph27.8 kmh 29.70 in1005.8 mb - 0.00 in0.0 mm 0.00 in0.0 mm
03:30 AM 57.1°F13.9°C 52.6°F11.4°C 85% 8.1 mph SSW13.0 kmh SSW 9.2 mph14.8 kmh 29.70 in1005.8 mb - 0.00 in0.0 mm 0.00 in0.0 mm
03:00 AM 57.2°F14.0°C 53.7°F12.1°C 88% 6.9 mph SSW11.1 kmh SSW 13.8 mph22.2 kmh 29.71 in1006.1 mb - 0.00 in0.0 mm 0.00 in0.0 mm
02:30 AM 57.3°F14.1°C 54.1°F12.3°C 89% 11.5 mph SSW18.5 kmh SSW 12.7 mph20.4 kmh 29.71 in1006.1 mb - 0.00 in0.0 mm 0.00 in0.0 mm
02:00 AM 57.2°F14.0°C 54.0°F12.2°C 89% 6.9 mph SSW11.1 kmh SSW 11.5 mph18.5 kmh 29.72 in1006.4 mb - 0.00 in0.0 mm 0.00 in0.0 mm
01:30 AM 57.8°F14.3°C 54.9°F12.7°C 90% 9.2 mph SSW14.8 kmh SSW 10.4 mph16.7 kmh 29.72 in1006.4 mb - 0.00 in0.0 mm 0.00 in0.0 mm
01:00 AM 58.4°F14.7°C 54.9°F12.7°C 88% 6.9 mph SSW11.1 kmh SSW 8.1 mph13.0 kmh 29.73 in1006.8 mb - 0.00 in0.0 mm 0.00 in0.0 mm
12:30 AM 58.5°F14.7°C 55.3°F12.9°C 89% 5.8 mph SW9.3 kmh SW 9.2 mph14.8 kmh 29.75 in1007.5 mb - 0.00 in0.0 mm 0.00 in0.0 mm
12:00 AM 58.6°F14.8°C 55.4°F13.0°C 89% 6.9 mph SSW11.1 kmh SSW 11.5 mph18.5 kmh 29.75 in1007.5 mb - 0.00 in0.0 mm 0.00 in0.0 mm